createdAt,value
2023-01-09T00:01:36.645Z,27.70
2023-01-09T00:04:05.649Z,27.70
2023-01-09T00:06:34.229Z,27.70
2023-01-09T00:09:02.922Z,27.70
2023-01-09T00:11:31.155Z,27.70
2023-01-09T00:13:59.955Z,27.60
2023-01-09T00:16:28.528Z,27.60
2023-01-09T00:18:56.827Z,27.70
2023-01-09T00:21:25.228Z,27.60
2023-01-09T00:23:55.496Z,27.60
2023-01-09T00:26:23.889Z,27.60
2023-01-09T00:28:53.009Z,27.60
2023-01-09T00:31:22.028Z,27.60
2023-01-09T00:33:56.013Z,27.60
2023-01-09T00:36:24.341Z,27.70
2023-01-09T00:38:52.905Z,27.60
2023-01-09T00:41:29.643Z,27.60
2023-01-09T00:44:02.324Z,27.60
2023-01-09T00:46:36.149Z,27.70
2023-01-09T00:49:07.634Z,27.60
2023-01-09T00:51:36.129Z,27.60
2023-01-09T00:54:04.936Z,27.60
2023-01-09T00:56:35.366Z,27.60
2023-01-09T00:59:04.920Z,27.60
2023-01-09T01:01:33.481Z,27.60
2023-01-09T01:04:01.937Z,27.60
2023-01-09T01:06:30.223Z,27.60
2023-01-09T01:08:58.455Z,27.60
2023-01-09T01:11:26.925Z,27.50
2023-01-09T01:13:55.403Z,27.50
2023-01-09T01:16:23.655Z,27.50
2023-01-09T01:18:52.111Z,27.50
2023-01-09T01:21:20.514Z,27.50
2023-01-09T01:23:48.674Z,27.50
2023-01-09T01:26:17.622Z,27.50
2023-01-09T01:28:46.106Z,27.50
2023-01-09T01:31:19.395Z,27.50
2023-01-09T01:33:47.949Z,27.50
2023-01-09T01:36:16.310Z,27.40
2023-01-09T01:38:45.148Z,27.50
2023-01-09T01:41:13.662Z,27.50
2023-01-09T01:43:53.861Z,27.50
2023-01-09T01:46:22.879Z,27.50
2023-01-09T01:49:15.200Z,27.50
2023-01-09T01:51:47.770Z,27.50
2023-01-09T01:54:19.343Z,27.50
2023-01-09T01:56:51.942Z,27.40
2023-01-09T01:59:25.732Z,27.40
2023-01-09T02:01:58.604Z,27.40
2023-01-09T02:04:28.001Z,27.40
2023-01-09T02:06:57.940Z,27.40
2023-01-09T02:09:27.163Z,27.30
2023-01-09T02:11:58.905Z,27.10
2023-01-09T02:14:32.775Z,27.00
2023-01-09T02:17:01.081Z,26.90
2023-01-09T02:19:49.625Z,26.90
2023-01-09T02:22:37.836Z,26.80
2023-01-09T02:25:38.174Z,26.80
2023-01-09T02:28:18.911Z,26.70
2023-01-09T02:31:11.185Z,26.60
2023-01-09T02:34:11.859Z,26.50
2023-01-09T02:36:58.210Z,26.50
2023-01-09T02:39:38.772Z,26.50
2023-01-09T02:42:19.705Z,26.40
2023-01-09T02:44:48.141Z,26.40
2023-01-09T02:47:16.449Z,26.40
2023-01-09T02:50:03.548Z,26.40
2023-01-09T02:53:13.563Z,26.40
2023-01-09T02:55:51.092Z,26.40
2023-01-09T02:58:42.040Z,26.40
2023-01-09T03:01:19.284Z,26.50
2023-01-09T03:03:56.269Z,26.40
2023-01-09T03:06:25.469Z,26.30
2023-01-09T03:08:58.979Z,26.30
2023-01-09T03:11:33.366Z,26.30
2023-01-09T03:14:12.775Z,26.40
2023-01-09T03:16:42.831Z,26.30
2023-01-09T03:19:16.458Z,26.40
2023-01-09T03:21:47.026Z,26.30
2023-01-09T03:24:15.312Z,26.30
2023-01-09T03:26:44.109Z,26.30
2023-01-09T03:29:12.291Z,26.20
2023-01-09T03:31:40.454Z,26.20
2023-01-09T03:34:09.166Z,26.20
2023-01-09T03:36:38.449Z,26.30
2023-01-09T03:39:06.553Z,26.20
2023-01-09T03:41:34.976Z,26.20
2023-01-09T03:44:03.330Z,26.20
2023-01-09T03:46:31.783Z,26.20
2023-01-09T03:48:59.963Z,26.00
2023-01-09T03:51:28.484Z,26.10
2023-01-09T03:53:56.848Z,26.00
2023-01-09T03:56:25.172Z,26.00
2023-01-09T03:58:53.415Z,25.90
2023-01-09T04:01:21.884Z,25.90
2023-01-09T04:03:50.477Z,25.80
2023-01-09T04:06:18.689Z,25.70
2023-01-09T04:08:46.946Z,25.70
2023-01-09T04:11:15.285Z,25.70
2023-01-09T04:13:43.489Z,25.60
2023-01-09T04:16:12.193Z,25.60
2023-01-09T04:18:40.436Z,25.70
2023-01-09T04:21:08.836Z,25.70
2023-01-09T04:23:37.029Z,25.80
2023-01-09T04:26:05.284Z,25.80
2023-01-09T04:28:33.557Z,25.80
2023-01-09T04:31:01.804Z,25.80
2023-01-09T04:33:30.251Z,25.80
2023-01-09T04:35:58.584Z,25.60
2023-01-09T04:38:26.991Z,25.50
2023-01-09T04:40:55.295Z,25.40
2023-01-09T04:43:23.590Z,25.50
2023-01-09T04:45:51.874Z,25.60
2023-01-09T04:48:20.290Z,25.60
2023-01-09T04:50:48.508Z,25.60
2023-01-09T04:53:16.739Z,25.60
2023-01-09T04:55:45.122Z,25.60
2023-01-09T04:58:13.335Z,25.60
2023-01-09T05:00:41.572Z,25.60
2023-01-09T05:03:09.874Z,25.60
2023-01-09T05:05:37.915Z,25.60
2023-01-09T05:08:06.527Z,25.60
2023-01-09T05:10:34.613Z,25.70
2023-01-09T05:13:02.859Z,25.60
2023-01-09T05:15:31.061Z,25.60
2023-01-09T05:17:59.270Z,25.70
2023-01-09T05:20:27.524Z,25.70
2023-01-09T05:22:55.578Z,25.70
2023-01-09T05:25:23.845Z,25.70
2023-01-09T05:27:52.202Z,25.60
2023-01-09T05:30:20.516Z,25.60
2023-01-09T05:32:48.728Z,25.60
2023-01-09T05:35:17.106Z,25.60
2023-01-09T05:37:45.388Z,25.60
2023-01-09T05:40:14.173Z,25.60
2023-01-09T05:42:44.096Z,25.60
2023-01-09T05:45:12.905Z,25.60
2023-01-09T05:47:41.211Z,25.60
2023-01-09T05:50:09.895Z,25.60
2023-01-09T05:52:38.157Z,25.50
2023-01-09T05:55:07.837Z,25.50
2023-01-09T05:57:36.027Z,25.60
2023-01-09T06:00:05.283Z,25.60
2023-01-09T06:02:34.943Z,25.60
2023-01-09T06:05:03.154Z,25.50
2023-01-09T06:07:31.498Z,25.50
2023-01-09T06:09:59.817Z,25.40
2023-01-09T06:12:28.043Z,25.40
2023-01-09T06:14:56.332Z,25.40
2023-01-09T06:17:24.499Z,25.40
2023-01-09T06:19:52.696Z,25.40
2023-01-09T06:22:20.918Z,25.40
2023-01-09T06:24:49.373Z,25.40
2023-01-09T06:27:17.762Z,25.40
2023-01-09T06:29:45.846Z,25.50
2023-01-09T06:32:14.081Z,25.50
2023-01-09T06:34:42.371Z,25.50
2023-01-09T06:37:11.128Z,25.50
2023-01-09T06:39:39.201Z,25.40
2023-01-09T06:42:07.583Z,25.40
2023-01-09T06:44:36.065Z,25.40
2023-01-09T06:47:05.056Z,25.40
2023-01-09T06:49:33.278Z,25.40
2023-01-09T06:52:01.585Z,25.40
2023-01-09T06:54:29.934Z,25.30
2023-01-09T06:56:58.247Z,25.40
2023-01-09T06:59:26.636Z,25.40
2023-01-09T07:01:54.963Z,25.40
2023-01-09T07:04:23.401Z,25.40
2023-01-09T07:06:51.582Z,25.40
2023-01-09T07:09:19.771Z,25.50
2023-01-09T07:11:47.923Z,25.50
2023-01-09T07:14:16.155Z,25.50
2023-01-09T07:16:44.337Z,25.50
2023-01-09T07:19:12.399Z,25.50
2023-01-09T07:21:40.732Z,25.50
2023-01-09T07:24:09.036Z,25.50
2023-01-09T07:26:37.199Z,25.40
2023-01-09T07:29:05.633Z,25.50
2023-01-09T07:31:33.920Z,25.60
2023-01-09T07:34:02.187Z,25.60
2023-01-09T07:36:30.311Z,25.60
2023-01-09T07:38:58.651Z,25.60
2023-01-09T07:41:27.184Z,25.70
2023-01-09T07:43:55.651Z,25.70
2023-01-09T07:46:23.843Z,25.60
2023-01-09T07:48:52.143Z,25.70
2023-01-09T07:51:20.337Z,25.60
2023-01-09T07:53:48.359Z,25.60
2023-01-09T07:56:16.700Z,25.70
2023-01-09T07:58:44.772Z,25.70
2023-01-09T08:01:13.205Z,25.80
2023-01-09T08:03:41.683Z,25.80
2023-01-09T08:06:10.101Z,25.90
2023-01-09T08:08:38.346Z,25.90
2023-01-09T08:11:06.691Z,25.90
2023-01-09T08:13:35.262Z,26.00
2023-01-09T08:16:03.660Z,26.00
2023-01-09T08:18:32.105Z,26.00
2023-01-09T08:21:01.150Z,26.00
2023-01-09T08:23:30.023Z,26.10
2023-01-09T08:25:58.318Z,26.20
2023-01-09T08:28:26.596Z,26.30
2023-01-09T08:30:54.940Z,26.30
2023-01-09T08:33:23.385Z,26.40
2023-01-09T08:35:51.616Z,26.50
2023-01-09T08:38:19.888Z,26.50
2023-01-09T08:40:48.796Z,26.60
2023-01-09T08:43:17.040Z,26.60
2023-01-09T08:45:45.142Z,26.70
2023-01-09T08:48:13.554Z,26.70
2023-01-09T08:50:41.871Z,26.80
2023-01-09T08:53:10.970Z,26.80
2023-01-09T08:55:39.717Z,26.90
2023-01-09T08:58:08.015Z,26.90
2023-01-09T09:00:36.262Z,27.00
2023-01-09T09:03:04.857Z,27.00
2023-01-09T09:05:33.909Z,27.10
2023-01-09T09:08:02.328Z,27.00
2023-01-09T09:10:31.185Z,27.10
2023-01-09T09:12:59.989Z,27.10
2023-01-09T09:15:30.058Z,27.20
2023-01-09T09:18:00.620Z,27.20
2023-01-09T09:20:35.341Z,27.30
2023-01-09T09:23:03.865Z,27.40
2023-01-09T09:25:32.601Z,27.40
2023-01-09T09:28:01.300Z,27.40
2023-01-09T09:30:29.739Z,27.40
2023-01-09T09:32:57.972Z,27.40
2023-01-09T09:35:26.306Z,27.50
2023-01-09T09:37:59.951Z,27.50
2023-01-09T09:40:48.865Z,27.60
2023-01-09T09:43:44.627Z,27.50
2023-01-09T09:46:42.232Z,27.60
2023-01-09T09:49:27.689Z,27.60
2023-01-09T09:52:14.472Z,27.50
2023-01-09T09:54:50.082Z,27.50
2023-01-09T09:57:33.042Z,27.60
2023-01-09T10:00:02.974Z,27.70
2023-01-09T10:02:46.652Z,27.70
2023-01-09T10:05:35.930Z,27.70
2023-01-09T10:08:28.347Z,27.80
2023-01-09T10:10:56.692Z,27.80
2023-01-09T10:13:26.010Z,27.70
2023-01-09T10:16:36.940Z,27.70
2023-01-09T10:19:28.331Z,27.70
2023-01-09T10:22:15.073Z,27.80
2023-01-09T10:25:04.883Z,27.80
2023-01-09T10:27:57.657Z,28.00
2023-01-09T10:30:38.149Z,28.00
2023-01-09T10:33:24.749Z,28.10
2023-01-09T10:35:58.997Z,28.00
2023-01-09T10:38:41.051Z,27.90
2023-01-09T10:41:21.801Z,28.00
2023-01-09T10:43:57.937Z,28.10
2023-01-09T10:46:37.509Z,28.20
2023-01-09T10:49:15.228Z,28.20
2023-01-09T10:52:05.554Z,28.30
2023-01-09T10:54:33.985Z,28.30
2023-01-09T10:57:02.191Z,28.30
2023-01-09T10:59:30.684Z,28.40
2023-01-09T11:01:59.174Z,28.50
2023-01-09T11:04:31.819Z,28.60
2023-01-09T11:07:07.908Z,28.60
2023-01-09T11:10:09.813Z,28.60
2023-01-09T11:12:38.753Z,28.70
2023-01-09T11:15:18.925Z,28.80
2023-01-09T11:17:48.782Z,28.80
2023-01-09T11:20:18.606Z,28.90
2023-01-09T11:23:05.048Z,28.90
2023-01-09T11:25:33.325Z,28.90
2023-01-09T11:28:04.371Z,29.10
2023-01-09T11:30:37.655Z,29.20
2023-01-09T11:33:19.287Z,29.20
2023-01-09T11:35:57.897Z,29.30
2023-01-09T11:38:26.581Z,29.40
2023-01-09T11:41:03.476Z,29.50
2023-01-09T11:43:33.730Z,29.50
2023-01-09T11:46:10.971Z,29.70
2023-01-09T11:48:52.954Z,29.70
2023-01-09T11:51:33.368Z,29.70
2023-01-09T11:54:05.622Z,29.80
2023-01-09T11:56:34.346Z,29.80
2023-01-09T11:59:02.693Z,29.80
2023-01-09T12:02:08.023Z,29.80
2023-01-09T12:04:47.454Z,29.80
2023-01-09T12:07:44.806Z,29.90
2023-01-09T12:10:56.167Z,30.10
2023-01-09T12:14:01.478Z,30.10
2023-01-09T12:16:51.089Z,30.10
2023-01-09T12:19:38.135Z,30.00
2023-01-09T12:22:17.632Z,30.10
2023-01-09T12:25:12.358Z,30.10
2023-01-09T12:28:09.588Z,29.90
2023-01-09T12:31:10.049Z,30.00
2023-01-09T12:33:56.272Z,30.20
2023-01-09T12:36:30.565Z,30.30
2023-01-09T12:39:23.458Z,30.30
2023-01-09T12:41:51.741Z,30.20
2023-01-09T12:44:44.302Z,30.30
2023-01-09T12:47:43.321Z,30.30
2023-01-09T12:50:15.783Z,30.20
2023-01-09T12:52:58.030Z,30.10
2023-01-09T12:55:30.769Z,30.20
2023-01-09T12:58:02.499Z,30.40
2023-01-09T13:00:57.168Z,30.60
2023-01-09T13:03:41.609Z,30.50
2023-01-09T13:06:16.887Z,30.40
2023-01-09T13:08:55.570Z,30.50
2023-01-09T13:11:38.697Z,30.60
2023-01-09T13:14:48.652Z,30.40
2023-01-09T13:17:39.528Z,30.40
2023-01-09T13:20:33.886Z,30.50
2023-01-09T13:23:04.821Z,30.50
2023-01-09T13:25:54.436Z,30.50
2023-01-09T13:28:29.531Z,30.50
2023-01-09T13:31:16.116Z,30.60
2023-01-09T13:33:51.866Z,30.60
2023-01-09T13:36:26.451Z,30.70
2023-01-09T13:38:57.136Z,30.80
2023-01-09T13:41:26.685Z,30.80
2023-01-09T13:44:06.398Z,30.70
2023-01-09T13:46:42.533Z,30.40
2023-01-09T13:49:41.233Z,30.60
2023-01-09T13:52:38.422Z,30.70
2023-01-09T13:55:12.545Z,30.50
2023-01-09T13:57:44.075Z,30.50
2023-01-09T14:00:18.165Z,30.50
2023-01-09T14:02:46.427Z,30.70
2023-01-09T14:05:15.767Z,30.70
2023-01-09T14:07:44.842Z,30.70
2023-01-09T14:10:35.175Z,30.80
2023-01-09T14:13:18.160Z,30.90
2023-01-09T14:15:47.133Z,30.90
2023-01-09T14:18:19.655Z,30.80
2023-01-09T14:20:58.177Z,30.80
2023-01-09T14:23:52.126Z,30.60
2023-01-09T14:26:24.015Z,30.70
2023-01-09T14:28:52.889Z,30.90
2023-01-09T14:31:33.518Z,31.10
2023-01-09T14:34:32.394Z,31.00
2023-01-09T14:37:02.986Z,31.10
2023-01-09T14:39:33.160Z,31.20
2023-01-09T14:42:05.309Z,31.10
2023-01-09T14:44:46.107Z,31.30
2023-01-09T14:47:32.676Z,31.30
2023-01-09T14:50:26.427Z,31.30
2023-01-09T14:53:19.488Z,31.30
2023-01-09T14:55:57.011Z,31.00
2023-01-09T14:58:29.497Z,30.90
2023-01-09T15:01:18.286Z,31.00
2023-01-09T15:03:54.110Z,31.20
2023-01-09T15:06:30.990Z,31.20
2023-01-09T15:09:06.130Z,31.40
2023-01-09T15:11:35.791Z,31.20
2023-01-09T15:14:05.382Z,31.10
2023-01-09T15:16:33.997Z,31.30
2023-01-09T15:19:08.446Z,31.30
2023-01-09T15:21:36.734Z,31.60
2023-01-09T15:24:26.729Z,31.70
2023-01-09T15:26:59.769Z,31.80
2023-01-09T15:29:28.759Z,31.90
2023-01-09T15:32:07.711Z,32.00
2023-01-09T15:34:37.047Z,31.60
2023-01-09T15:37:05.460Z,31.80
2023-01-09T15:39:37.984Z,31.70
2023-01-09T15:42:15.805Z,31.80
2023-01-09T15:44:47.852Z,31.90
2023-01-09T15:47:24.711Z,31.70
2023-01-09T15:49:53.986Z,31.60
2023-01-09T15:52:22.803Z,31.70
2023-01-09T15:54:51.428Z,31.90
2023-01-09T15:57:29.762Z,32.10
2023-01-09T16:00:18.960Z,32.00
2023-01-09T16:02:47.913Z,32.10
2023-01-09T16:05:17.913Z,32.20
2023-01-09T16:07:51.299Z,32.20
2023-01-09T16:10:26.147Z,32.10
2023-01-09T16:12:54.609Z,32.20
2023-01-09T16:15:22.855Z,31.90
2023-01-09T16:18:16.209Z,31.60
2023-01-09T16:20:45.678Z,31.20
2023-01-09T16:23:32.972Z,31.10
2023-01-09T16:26:07.433Z,31.40
2023-01-09T16:28:35.858Z,31.40
2023-01-09T16:31:07.649Z,31.30
2023-01-09T16:33:36.056Z,31.20
2023-01-09T16:36:05.917Z,31.20
2023-01-09T16:38:34.240Z,31.20
2023-01-09T16:41:08.467Z,31.20
2023-01-09T16:43:36.817Z,31.40
2023-01-09T16:46:05.261Z,31.10
2023-01-09T16:48:35.083Z,30.90
2023-01-09T16:51:03.292Z,30.70
2023-01-09T16:53:31.483Z,30.70
2023-01-09T16:56:00.228Z,30.80
2023-01-09T16:58:34.063Z,31.20
2023-01-09T17:01:02.471Z,31.30
2023-01-09T17:03:30.876Z,31.20
2023-01-09T17:06:01.012Z,31.10
2023-01-09T17:08:34.913Z,31.10
2023-01-09T17:11:03.326Z,31.20
2023-01-09T17:13:31.649Z,31.10
2023-01-09T17:16:00.416Z,30.70
2023-01-09T17:18:30.081Z,30.60
2023-01-09T17:20:58.863Z,30.60
2023-01-09T17:23:27.068Z,30.40
2023-01-09T17:26:00.357Z,30.50
2023-01-09T17:28:29.297Z,30.10
2023-01-09T17:30:57.562Z,30.00
2023-01-09T17:33:25.831Z,29.90
2023-01-09T17:35:54.428Z,29.80
2023-01-09T17:38:22.758Z,29.70
2023-01-09T17:40:51.645Z,29.70
2023-01-09T17:43:20.021Z,29.60
2023-01-09T17:45:48.645Z,29.40
2023-01-09T17:48:19.160Z,29.50
2023-01-09T17:50:48.556Z,29.50
2023-01-09T17:53:16.937Z,29.60
2023-01-09T17:55:45.298Z,29.50
2023-01-09T17:58:27.445Z,29.50
2023-01-09T18:00:55.544Z,29.40
2023-01-09T18:03:24.001Z,29.40
2023-01-09T18:05:52.714Z,29.40
2023-01-09T18:08:21.059Z,29.50
2023-01-09T18:10:49.476Z,29.30
2023-01-09T18:13:18.093Z,29.30
2023-01-09T18:15:47.100Z,29.30
2023-01-09T18:18:15.836Z,29.30
2023-01-09T18:20:45.131Z,29.20
2023-01-09T18:23:13.710Z,29.20
2023-01-09T18:25:43.116Z,29.10
2023-01-09T18:28:13.259Z,29.00
2023-01-09T18:30:42.334Z,29.00
2023-01-09T18:33:10.893Z,29.00
2023-01-09T18:35:39.313Z,28.90
2023-01-09T18:38:08.304Z,28.90
2023-01-09T18:40:36.476Z,28.90
2023-01-09T18:43:05.321Z,28.90
2023-01-09T18:45:36.990Z,28.80
2023-01-09T18:48:06.873Z,28.80
2023-01-09T18:50:36.613Z,28.80
2023-01-09T18:53:04.803Z,28.70
2023-01-09T18:55:33.196Z,28.70
2023-01-09T18:58:01.414Z,28.70
2023-01-09T19:00:29.697Z,28.70
2023-01-09T19:02:58.028Z,28.70
2023-01-09T19:05:26.476Z,28.60
2023-01-09T19:07:54.847Z,28.70
2023-01-09T19:10:23.083Z,28.60
2023-01-09T19:12:52.505Z,28.60
2023-01-09T19:15:20.693Z,28.60
2023-01-09T19:17:48.786Z,28.50
2023-01-09T19:20:17.289Z,28.60
2023-01-09T19:22:45.505Z,28.60
2023-01-09T19:25:13.744Z,28.60
2023-01-09T19:27:42.184Z,28.60
2023-01-09T19:30:11.132Z,28.60
2023-01-09T19:32:40.697Z,28.50
2023-01-09T19:35:09.273Z,28.50
2023-01-09T19:37:37.559Z,28.60
2023-01-09T19:40:06.291Z,28.50
2023-01-09T19:42:34.677Z,28.50
2023-01-09T19:45:02.929Z,28.50
2023-01-09T19:47:34.073Z,28.50
2023-01-09T19:50:04.873Z,28.50
2023-01-09T19:52:33.520Z,28.40
2023-01-09T19:55:01.781Z,28.40
2023-01-09T19:57:30.199Z,28.40
2023-01-09T19:59:58.485Z,28.40
2023-01-09T20:02:27.023Z,28.40
2023-01-09T20:04:55.543Z,28.40
2023-01-09T20:07:23.715Z,28.40
2023-01-09T20:09:52.217Z,28.40
2023-01-09T20:12:20.513Z,28.30
2023-01-09T20:14:48.631Z,28.30
2023-01-09T20:17:17.166Z,28.30
2023-01-09T20:19:45.572Z,28.30
2023-01-09T20:22:14.487Z,28.30
2023-01-09T20:24:42.982Z,28.30
2023-01-09T20:27:11.333Z,28.30
2023-01-09T20:29:39.769Z,28.30
2023-01-09T20:32:08.349Z,28.20
2023-01-09T20:34:36.685Z,28.30
2023-01-09T20:37:05.043Z,28.30
2023-01-09T20:39:33.609Z,28.20
2023-01-09T20:42:01.810Z,28.20
2023-01-09T20:44:30.107Z,28.20
2023-01-09T20:46:58.272Z,28.20
2023-01-09T20:49:26.439Z,28.20
2023-01-09T20:51:54.840Z,28.20
2023-01-09T20:54:24.546Z,28.10
2023-01-09T20:56:52.936Z,28.10
2023-01-09T20:59:21.511Z,28.00
2023-01-09T21:01:50.451Z,28.00
2023-01-09T21:04:19.147Z,28.00
2023-01-09T21:06:50.353Z,28.00
2023-01-09T21:09:19.041Z,28.00
2023-01-09T21:11:47.376Z,28.00
2023-01-09T21:14:15.568Z,28.00
2023-01-09T21:16:51.326Z,28.00
2023-01-09T21:19:22.075Z,28.00
2023-01-09T21:21:52.929Z,28.00
2023-01-09T21:24:21.357Z,28.00
2023-01-09T21:26:49.606Z,28.00
2023-01-09T21:29:17.996Z,28.00
2023-01-09T21:31:46.330Z,28.00
2023-01-09T21:34:14.726Z,28.00
2023-01-09T21:36:43.088Z,28.00
2023-01-09T21:39:11.780Z,28.00
2023-01-09T21:41:40.213Z,28.00
2023-01-09T21:44:14.906Z,27.90
2023-01-09T21:46:43.218Z,28.00
2023-01-09T21:49:11.444Z,28.00
2023-01-09T21:51:39.840Z,27.90
2023-01-09T21:54:10.319Z,28.00
2023-01-09T21:56:38.778Z,27.90
2023-01-09T21:59:07.247Z,27.90
2023-01-09T22:01:35.537Z,28.00
2023-01-09T22:04:05.184Z,27.90
2023-01-09T22:06:35.691Z,27.90
2023-01-09T22:09:04.200Z,28.00
2023-01-09T22:11:32.532Z,27.90
2023-01-09T22:14:00.936Z,27.90
2023-01-09T22:16:29.530Z,27.90
2023-01-09T22:18:58.538Z,27.90
2023-01-09T22:21:26.996Z,27.90
2023-01-09T22:23:55.292Z,27.90
2023-01-09T22:26:23.835Z,27.80
2023-01-09T22:28:51.962Z,27.80
2023-01-09T22:31:23.477Z,27.80
2023-01-09T22:33:56.875Z,27.80
2023-01-09T22:36:26.366Z,27.80
2023-01-09T22:38:55.603Z,27.80
2023-01-09T22:41:25.718Z,27.80
2023-01-09T22:43:54.165Z,27.80
2023-01-09T22:46:22.478Z,27.70
2023-01-09T22:48:50.822Z,27.80
2023-01-09T22:51:21.359Z,27.80
2023-01-09T22:53:51.000Z,27.70
2023-01-09T22:56:21.846Z,27.70
2023-01-09T22:58:55.190Z,27.70
2023-01-09T23:01:23.873Z,27.70
2023-01-09T23:03:52.228Z,27.70
2023-01-09T23:06:22.715Z,27.70
2023-01-09T23:08:52.383Z,27.70
2023-01-09T23:11:31.819Z,27.70
2023-01-09T23:14:00.323Z,27.70
2023-01-09T23:16:28.463Z,27.70
2023-01-09T23:18:56.865Z,27.60
2023-01-09T23:21:25.119Z,27.70
2023-01-09T23:23:53.531Z,27.70
2023-01-09T23:26:21.759Z,27.70
2023-01-09T23:28:49.942Z,27.60
2023-01-09T23:31:18.318Z,27.60
2023-01-09T23:33:46.432Z,27.60
2023-01-09T23:36:14.665Z,27.60
2023-01-09T23:38:43.010Z,27.60
2023-01-09T23:41:11.143Z,27.70
2023-01-09T23:43:39.367Z,27.60
2023-01-09T23:46:07.673Z,27.60
2023-01-09T23:48:36.073Z,27.70
2023-01-09T23:51:04.460Z,27.70
2023-01-09T23:53:33.332Z,27.70
2023-01-09T23:56:01.773Z,27.70
2023-01-09T23:58:29.993Z,27.70
